createdAt,value
2017-08-05T00:00:06.202Z,20.00
2017-08-05T00:02:34.528Z,20.00
2017-08-05T00:05:02.823Z,20.00
2017-08-05T00:07:31.140Z,20.00
2017-08-05T00:09:59.439Z,19.90
2017-08-05T00:12:27.729Z,19.90
2017-08-05T00:14:56.054Z,19.90
2017-08-05T00:17:24.338Z,19.80
2017-08-05T00:19:52.621Z,19.70
2017-08-05T00:22:20.947Z,19.70
2017-08-05T00:24:49.236Z,19.60
2017-08-05T00:27:17.553Z,19.60
2017-08-05T00:29:45.892Z,19.60
2017-08-05T00:32:14.949Z,19.60
2017-08-05T00:34:43.239Z,19.60
2017-08-05T00:37:11.551Z,19.60
2017-08-05T00:39:39.928Z,19.50
2017-08-05T00:42:08.976Z,19.60
2017-08-05T00:44:37.283Z,19.60
2017-08-05T00:47:05.584Z,19.60
2017-08-05T00:49:33.903Z,19.60
2017-08-05T00:52:02.219Z,19.50
2017-08-05T00:54:30.512Z,19.50
2017-08-05T00:56:58.806Z,19.40
2017-08-05T00:59:27.137Z,19.30
2017-08-05T01:01:55.432Z,19.30
2017-08-05T01:04:23.718Z,19.30
2017-08-05T01:06:52.065Z,19.20
2017-08-05T01:09:21.116Z,19.10
2017-08-05T01:11:49.467Z,19.10
2017-08-05T01:14:17.752Z,19.10
2017-08-05T01:16:46.043Z,19.10
2017-08-05T01:19:14.355Z,19.10
2017-08-05T01:21:42.656Z,19.10
2017-08-05T01:24:11.634Z,19.10
2017-08-05T01:26:39.972Z,19.00
2017-08-05T01:29:08.256Z,19.00
2017-08-05T01:31:36.554Z,19.00
2017-08-05T01:34:04.876Z,19.00
2017-08-05T01:36:33.207Z,19.00
2017-08-05T01:39:01.495Z,19.00
2017-08-05T01:41:29.787Z,19.00
2017-08-05T01:43:58.121Z,19.10
2017-08-05T01:46:26.404Z,19.10
2017-08-05T01:48:54.684Z,19.10
2017-08-05T01:51:23.013Z,19.10
2017-08-05T01:53:51.358Z,19.10
2017-08-05T01:56:19.646Z,19.10
2017-08-05T01:58:47.934Z,19.10
2017-08-05T02:01:16.242Z,19.00
2017-08-05T02:03:44.547Z,19.00
2017-08-05T02:06:13.606Z,18.90
2017-08-05T02:08:41.963Z,18.90
2017-08-05T02:11:10.283Z,18.90
2017-08-05T02:13:38.574Z,19.00
2017-08-05T02:16:06.893Z,19.00
2017-08-05T02:18:35.182Z,19.10
2017-08-05T02:21:04.283Z,19.00
2017-08-05T02:23:32.575Z,19.00
2017-08-05T02:26:00.871Z,19.00
2017-08-05T02:28:29.179Z,18.90
2017-08-05T02:30:57.499Z,18.90
2017-08-05T02:33:25.802Z,18.80
2017-08-05T02:35:54.179Z,18.80
2017-08-05T02:38:22.475Z,18.90
2017-08-05T02:40:50.769Z,18.90
2017-08-05T02:43:19.097Z,18.90
2017-08-05T02:45:47.374Z,18.90
2017-08-05T02:48:15.684Z,19.00
2017-08-05T02:50:43.969Z,19.00
2017-08-05T02:53:13.867Z,19.00
2017-08-05T02:55:42.160Z,19.00
2017-08-05T02:58:10.459Z,19.00
2017-08-05T03:00:38.790Z,19.00
2017-08-05T03:03:07.107Z,19.00
2017-08-05T03:05:35.382Z,19.10
2017-08-05T03:08:04.431Z,19.10
2017-08-05T03:10:32.739Z,19.10
2017-08-05T03:13:01.030Z,19.10
2017-08-05T03:15:29.343Z,19.10
2017-08-05T03:17:57.628Z,19.10
2017-08-05T03:20:25.946Z,19.10
2017-08-05T03:22:54.315Z,19.10
2017-08-05T03:25:22.609Z,19.10
2017-08-05T03:27:51.691Z,18.90
2017-08-05T03:30:20.003Z,18.90
2017-08-05T03:32:48.365Z,18.90
2017-08-05T03:35:16.643Z,18.90
2017-08-05T03:37:45.687Z,19.00
2017-08-05T03:40:14.020Z,18.90
2017-08-05T03:42:42.310Z,19.00
2017-08-05T03:45:10.598Z,19.00
2017-08-05T03:47:38.915Z,19.00
2017-08-05T03:50:07.199Z,19.00
2017-08-05T03:52:35.506Z,19.00
2017-08-05T03:55:03.784Z,19.00
2017-08-05T03:57:32.099Z,19.00
2017-08-05T04:00:00.382Z,18.90
2017-08-05T04:02:28.687Z,18.90
2017-08-05T04:04:57.004Z,18.80
2017-08-05T04:07:25.282Z,18.70
2017-08-05T04:09:54.357Z,18.60
2017-08-05T04:12:22.647Z,18.50
2017-08-05T04:14:50.959Z,18.60
2017-08-05T04:17:19.251Z,18.70
2017-08-05T04:19:47.593Z,18.70
2017-08-05T04:22:15.883Z,18.80
2017-08-05T04:24:44.174Z,18.80
2017-08-05T04:27:12.492Z,18.80
2017-08-05T04:29:40.799Z,18.90
2017-08-05T04:32:09.111Z,18.80
2017-08-05T04:34:37.421Z,18.80
2017-08-05T04:37:05.731Z,18.70
2017-08-05T04:39:34.011Z,18.70
2017-08-05T04:42:02.327Z,18.60
2017-08-05T04:44:30.620Z,18.60
2017-08-05T04:46:59.676Z,18.70
2017-08-05T04:49:27.985Z,18.70
2017-08-05T04:51:56.271Z,18.80
2017-08-05T04:54:24.581Z,18.90
2017-08-05T04:56:52.883Z,19.00
2017-08-05T04:59:21.211Z,19.00
2017-08-05T05:01:49.500Z,19.10
2017-08-05T05:04:17.822Z,19.10
2017-08-05T05:06:46.103Z,19.20
2017-08-05T05:09:14.388Z,19.20
2017-08-05T05:11:42.731Z,19.30
2017-08-05T05:14:11.032Z,19.30
2017-08-05T05:16:39.325Z,19.40
2017-08-05T05:19:07.635Z,19.60
2017-08-05T05:21:35.923Z,19.70
2017-08-05T05:24:04.215Z,19.80
2017-08-05T05:26:32.511Z,19.90
2017-08-05T05:29:00.815Z,20.00
2017-08-05T05:31:29.120Z,20.10
2017-08-05T05:33:57.405Z,20.20
2017-08-05T05:36:26.491Z,20.50
2017-08-05T05:38:54.776Z,20.50
2017-08-05T05:41:23.080Z,20.60
2017-08-05T05:43:51.410Z,20.70
2017-08-05T05:46:19.699Z,20.80
2017-08-05T05:48:47.982Z,20.90
2017-08-05T05:51:16.303Z,21.30
2017-08-05T05:53:44.593Z,22.20
2017-08-05T05:56:12.900Z,23.40
2017-08-05T05:58:41.207Z,23.90
2017-08-05T06:01:09.499Z,23.90
2017-08-05T06:03:37.810Z,24.00
2017-08-05T06:06:06.115Z,23.80
2017-08-05T06:08:34.427Z,23.60
2017-08-05T06:11:02.715Z,23.20
2017-08-05T06:13:31.032Z,22.90
2017-08-05T06:15:59.384Z,22.60
2017-08-05T06:18:27.672Z,22.40
2017-08-05T06:20:56.719Z,22.50
2017-08-05T06:23:25.031Z,22.50
2017-08-05T06:25:53.339Z,22.60
2017-08-05T06:28:21.659Z,22.80
2017-08-05T06:30:49.956Z,23.20
2017-08-05T06:33:18.291Z,23.50
2017-08-05T06:35:46.595Z,23.60
2017-08-05T06:38:15.652Z,23.30
2017-08-05T06:40:43.963Z,23.30
2017-08-05T06:43:12.275Z,23.30
2017-08-05T06:45:41.924Z,25.70
2017-08-05T06:48:10.246Z,25.70
2017-08-05T06:50:39.812Z,28.20
2017-08-05T06:53:08.118Z,28.20
2017-08-05T06:55:36.443Z,28.60
2017-08-05T06:58:05.490Z,28.80
2017-08-05T07:00:33.776Z,28.70
2017-08-05T07:03:02.863Z,29.50
2017-08-05T07:05:31.935Z,30.00
2017-08-05T07:08:00.219Z,29.70
2017-08-05T07:10:28.543Z,30.50
2017-08-05T07:12:56.855Z,30.00
2017-08-05T07:15:25.163Z,29.60
2017-08-05T07:17:53.463Z,28.90
2017-08-05T07:20:21.789Z,28.70
2017-08-05T07:22:50.081Z,28.10
2017-08-05T07:25:19.128Z,28.60
2017-08-05T07:27:47.471Z,28.50
2017-08-05T07:30:15.763Z,29.20
2017-08-05T07:32:44.062Z,29.80
2017-08-05T07:35:12.387Z,29.60
2017-08-05T07:37:40.685Z,29.30
2017-08-05T07:40:09.007Z,29.10
2017-08-05T07:42:38.068Z,29.80
2017-08-05T07:45:06.344Z,29.80
2017-08-05T07:47:36.155Z,29.30
2017-08-05T07:50:04.483Z,29.30
2017-08-05T07:52:33.603Z,27.40
2017-08-05T07:55:01.891Z,27.40
2017-08-05T07:57:30.240Z,26.90
2017-08-05T07:59:58.551Z,26.40
2017-08-05T08:02:26.834Z,26.00
2017-08-05T08:04:55.163Z,25.90
2017-08-05T08:07:23.440Z,25.80
2017-08-05T08:09:51.759Z,25.80
2017-08-05T08:12:20.043Z,25.60
2017-08-05T08:14:48.356Z,25.30
2017-08-05T08:17:16.695Z,25.20
2017-08-05T08:19:45.758Z,24.80
2017-08-05T08:22:14.068Z,24.70
2017-08-05T08:24:42.387Z,24.80
2017-08-05T08:27:10.694Z,25.00
2017-08-05T08:29:39.024Z,25.40
2017-08-05T08:32:07.338Z,25.60
2017-08-05T08:34:36.442Z,26.80
2017-08-05T08:37:05.500Z,27.10
2017-08-05T08:39:34.567Z,27.00
2017-08-05T08:42:02.899Z,27.00
2017-08-05T08:44:31.193Z,26.80
2017-08-05T08:46:59.475Z,26.60
2017-08-05T08:49:27.787Z,26.40
2017-08-05T08:51:56.109Z,26.30
2017-08-05T08:54:25.903Z,26.40
2017-08-05T08:56:54.183Z,26.40
2017-08-05T08:59:22.464Z,26.70
2017-08-05T09:01:50.778Z,26.90
2017-08-05T09:04:19.105Z,26.90
2017-08-05T09:06:47.387Z,27.00
2017-08-05T09:09:15.717Z,27.20
2017-08-05T09:11:44.016Z,27.80
2017-08-05T09:14:12.311Z,28.20
2017-08-05T09:16:40.649Z,28.80
2017-08-05T09:19:08.930Z,29.30
2017-08-05T09:21:37.227Z,29.50
2017-08-05T09:24:05.555Z,29.60
2017-08-05T09:26:33.852Z,29.70
2017-08-05T09:29:03.350Z,29.70
2017-08-05T09:31:31.675Z,29.90
2017-08-05T09:33:59.951Z,29.60
2017-08-05T09:36:28.229Z,29.70
2017-08-05T09:38:57.309Z,30.10
2017-08-05T09:41:25.578Z,30.10
2017-08-05T09:43:53.900Z,30.30
2017-08-05T09:46:22.210Z,30.30
2017-08-05T09:48:50.482Z,30.40
2017-08-05T09:51:19.538Z,29.60
2017-08-05T09:53:47.860Z,29.70
2017-08-05T09:56:16.158Z,29.00
2017-08-05T09:58:44.453Z,28.40
2017-08-05T10:01:13.573Z,27.60
2017-08-05T10:03:42.447Z,27.60
2017-08-05T10:06:12.540Z,26.90
2017-08-05T10:08:41.655Z,26.60
2017-08-05T10:11:09.939Z,26.60
2017-08-05T10:13:38.215Z,26.30
2017-08-05T10:16:06.540Z,26.10
2017-08-05T10:18:34.818Z,25.90
2017-08-05T10:21:03.106Z,25.90
2017-08-05T10:23:31.428Z,25.90
2017-08-05T10:25:59.707Z,26.10
2017-08-05T10:28:27.988Z,26.20
2017-08-05T10:30:57.418Z,26.00
2017-08-05T10:33:25.720Z,25.70
2017-08-05T10:35:54.005Z,25.60
2017-08-05T10:38:22.328Z,25.70
2017-08-05T10:40:51.370Z,25.70
2017-08-05T10:43:20.762Z,25.70
2017-08-05T10:45:49.046Z,25.60
2017-08-05T10:48:17.341Z,25.50
2017-08-05T10:50:45.681Z,25.20
2017-08-05T10:53:13.990Z,25.10
2017-08-05T10:55:42.280Z,25.20
2017-08-05T10:58:11.401Z,25.50
2017-08-05T11:00:39.697Z,25.50
2017-08-05T11:03:07.997Z,25.50
2017-08-05T11:05:36.335Z,25.60
2017-08-05T11:08:04.639Z,25.70
2017-08-05T11:10:32.937Z,26.10
2017-08-05T11:13:01.280Z,26.50
2017-08-05T11:15:29.599Z,26.70
2017-08-05T11:17:57.883Z,26.80
2017-08-05T11:20:26.212Z,26.70
2017-08-05T11:22:54.486Z,26.50
2017-08-05T11:25:22.765Z,26.50
2017-08-05T11:27:51.101Z,26.40
2017-08-05T11:30:20.158Z,26.30
2017-08-05T11:32:48.436Z,26.30
2017-08-05T11:35:18.597Z,25.90
2017-08-05T11:37:46.872Z,25.90
2017-08-05T11:40:15.161Z,25.70
2017-08-05T11:42:43.498Z,25.60
2017-08-05T11:45:11.871Z,25.60
2017-08-05T11:47:40.171Z,25.60
2017-08-05T11:50:09.271Z,25.60
2017-08-05T11:52:38.352Z,25.80
2017-08-05T11:55:06.626Z,25.80
2017-08-05T11:57:35.719Z,25.90
2017-08-05T12:00:03.992Z,26.00
2017-08-05T12:02:32.307Z,25.60
2017-08-05T12:05:01.395Z,25.30
2017-08-05T12:07:29.678Z,25.30
2017-08-05T12:09:58.738Z,25.60
2017-08-05T12:12:27.092Z,25.60
2017-08-05T12:14:55.372Z,25.90
2017-08-05T12:17:23.714Z,26.00
2017-08-05T12:19:52.036Z,26.00
2017-08-05T12:22:20.310Z,26.00
2017-08-05T12:24:48.585Z,26.10
2017-08-05T12:27:17.631Z,26.10
2017-08-05T12:29:45.910Z,26.20
2017-08-05T12:32:14.196Z,26.20
2017-08-05T12:34:43.245Z,26.10
2017-08-05T12:39:50.035Z,26.30
2017-08-05T12:42:19.507Z,26.30
2017-08-05T12:44:48.959Z,26.30
2017-08-05T12:47:18.072Z,26.30
2017-08-05T12:49:47.479Z,26.30
2017-08-05T12:52:17.586Z,26.40
2017-08-05T12:54:47.366Z,26.30
2017-08-05T12:57:16.529Z,26.30
2017-08-05T12:59:45.677Z,25.80
2017-08-05T13:02:14.988Z,25.80
2017-08-05T13:04:43.299Z,25.40
2017-08-05T13:07:11.640Z,24.80
2017-08-05T13:09:39.950Z,24.40
2017-08-05T13:12:08.232Z,23.90
2017-08-05T13:14:36.545Z,23.30
2017-08-05T13:17:05.704Z,22.80
2017-08-05T13:19:33.987Z,22.50
2017-08-05T13:22:02.314Z,22.30
2017-08-05T13:24:31.363Z,22.10
2017-08-05T13:26:59.651Z,22.10
2017-08-05T13:29:28.726Z,22.00
2017-08-05T13:31:56.998Z,22.00
2017-08-05T13:34:25.287Z,22.00
2017-08-05T13:36:54.367Z,22.00
2017-08-05T13:39:22.657Z,22.00
2017-08-05T13:41:51.026Z,22.30
2017-08-05T13:44:19.350Z,22.50
2017-08-05T13:46:47.623Z,22.70
2017-08-05T13:49:16.666Z,23.20
2017-08-05T13:51:44.995Z,23.20
2017-08-05T13:54:13.287Z,23.40
2017-08-05T13:56:41.571Z,23.60
2017-08-05T13:59:09.927Z,23.70
2017-08-05T14:01:38.222Z,23.80
2017-08-05T14:04:06.511Z,24.10
2017-08-05T14:06:34.831Z,24.30
2017-08-05T14:09:03.106Z,24.50
2017-08-05T14:11:31.386Z,24.60
2017-08-05T14:13:59.706Z,24.60
2017-08-05T14:16:27.979Z,24.60
2017-08-05T14:18:56.254Z,24.50
2017-08-05T14:21:26.219Z,24.20
2017-08-05T14:23:54.506Z,24.30
2017-08-05T14:26:22.795Z,24.10
2017-08-05T14:28:51.115Z,24.00
2017-08-05T14:31:20.162Z,23.80
2017-08-05T14:33:48.455Z,23.80
2017-08-05T14:36:16.789Z,23.80
2017-08-05T14:41:14.706Z,23.80
2017-08-05T14:43:43.037Z,24.00
2017-08-05T14:46:12.084Z,24.00
2017-08-05T14:48:41.239Z,24.00
2017-08-05T14:51:09.515Z,24.00
2017-08-05T14:53:38.571Z,24.10
2017-08-05T14:56:06.900Z,24.10
2017-08-05T14:58:35.191Z,24.10
2017-08-05T15:01:03.492Z,24.20
2017-08-05T15:03:31.813Z,24.30
2017-08-05T15:06:00.098Z,24.30
2017-08-05T15:08:28.393Z,24.30
2017-08-05T15:10:56.722Z,24.30
2017-08-05T15:13:25.024Z,24.30
2017-08-05T15:15:54.118Z,24.40
2017-08-05T15:18:23.665Z,24.40
2017-08-05T15:20:51.992Z,24.40
2017-08-05T15:23:20.313Z,24.40
2017-08-05T15:25:49.377Z,24.30
2017-08-05T15:28:17.663Z,24.30
2017-08-05T15:30:45.988Z,24.30
2017-08-05T15:33:14.323Z,24.30
2017-08-05T15:35:43.399Z,24.40
2017-08-05T15:38:11.690Z,24.40
2017-08-05T15:40:40.067Z,24.40
2017-08-05T15:43:08.380Z,24.30
2017-08-05T15:45:36.667Z,24.20
2017-08-05T15:48:05.745Z,24.20
2017-08-05T15:50:34.036Z,24.20
2017-08-05T15:53:02.371Z,24.20
2017-08-05T15:55:30.668Z,24.20
2017-08-05T15:57:58.962Z,24.10
2017-08-05T16:00:27.288Z,24.10
2017-08-05T16:02:56.348Z,24.10
2017-08-05T16:05:24.634Z,24.00
2017-08-05T16:07:52.955Z,24.10
2017-08-05T16:10:21.265Z,24.10
2017-08-05T16:12:49.578Z,24.00
2017-08-05T16:15:17.894Z,23.90
2017-08-05T16:17:46.188Z,23.80
2017-08-05T16:20:15.580Z,23.80
2017-08-05T16:22:43.944Z,23.70
2017-08-05T16:25:12.271Z,23.70
2017-08-05T16:27:40.572Z,23.80
2017-08-05T16:30:10.384Z,23.90
2017-08-05T16:32:38.675Z,23.90
2017-08-05T16:35:06.956Z,23.80
2017-08-05T16:37:35.284Z,23.80
2017-08-05T16:40:03.571Z,23.80
2017-08-05T16:42:31.870Z,23.70
2017-08-05T16:45:00.196Z,23.80
2017-08-05T16:47:28.486Z,23.70
2017-08-05T16:49:56.763Z,23.60
2017-08-05T16:52:25.092Z,23.50
2017-08-05T16:54:53.375Z,23.40
2017-08-05T16:57:21.680Z,23.30
2017-08-05T16:59:50.022Z,23.20
2017-08-05T17:02:18.310Z,23.20
2017-08-05T17:04:46.595Z,23.10
2017-08-05T17:07:14.919Z,23.10
2017-08-05T17:09:43.223Z,23.00
2017-08-05T17:12:11.520Z,23.00
2017-08-05T17:14:39.854Z,23.00
2017-08-05T17:17:08.146Z,22.90
2017-08-05T17:19:37.204Z,22.70
2017-08-05T17:22:05.522Z,22.70
2017-08-05T17:24:33.807Z,22.50
2017-08-05T17:27:02.136Z,22.40
2017-08-05T17:29:30.479Z,22.30
2017-08-05T17:31:58.768Z,22.20
2017-08-05T17:34:27.091Z,22.20
2017-08-05T17:36:56.151Z,22.10
2017-08-05T17:39:24.426Z,22.10
2017-08-05T17:41:52.752Z,22.10
2017-08-05T17:44:21.037Z,22.10
2017-08-05T17:46:49.338Z,22.10
2017-08-05T17:49:17.657Z,22.20
2017-08-05T17:51:45.945Z,22.20
2017-08-05T17:54:14.253Z,22.20
2017-08-05T17:56:42.579Z,22.20
2017-08-05T17:59:10.895Z,22.20
2017-08-05T18:01:39.198Z,22.20
2017-08-05T18:04:07.549Z,22.10
2017-08-05T18:06:35.872Z,22.10
2017-08-05T18:09:04.206Z,22.10
2017-08-05T18:11:32.553Z,22.10
2017-08-05T18:14:01.596Z,22.00
2017-08-05T18:16:29.874Z,21.90
2017-08-05T18:18:58.976Z,21.90
2017-08-05T18:21:27.287Z,21.80
2017-08-05T18:23:56.340Z,21.80
2017-08-05T18:26:24.663Z,21.80
2017-08-05T18:28:52.940Z,21.80
2017-08-05T18:31:21.223Z,21.80
2017-08-05T18:33:50.294Z,21.80
2017-08-05T18:36:18.652Z,21.70
2017-08-05T18:38:46.983Z,21.70
2017-08-05T18:41:15.259Z,21.70
2017-08-05T18:43:43.542Z,21.70
2017-08-05T18:46:11.872Z,21.70
2017-08-05T18:48:40.163Z,21.70
2017-08-05T18:51:09.207Z,21.60
2017-08-05T18:53:37.536Z,21.60
2017-08-05T18:56:05.831Z,21.60
2017-08-05T18:58:34.106Z,21.60
2017-08-05T19:01:02.423Z,21.50
2017-08-05T19:03:30.703Z,21.50
2017-08-05T19:05:59.005Z,21.50
2017-08-05T19:08:27.331Z,21.40
2017-08-05T19:10:55.623Z,21.30
2017-08-05T19:13:23.903Z,21.30
2017-08-05T19:15:52.222Z,21.20
2017-08-05T19:18:20.502Z,21.10
2017-08-05T19:20:48.790Z,21.00
2017-08-05T19:23:17.110Z,21.00
2017-08-05T19:25:46.156Z,20.90
2017-08-05T19:28:14.446Z,20.90
2017-08-05T19:30:42.778Z,20.90
2017-08-05T19:33:11.064Z,20.80
2017-08-05T19:35:39.411Z,20.80
2017-08-05T19:38:07.738Z,20.80
2017-08-05T19:40:36.032Z,20.70
2017-08-05T19:43:05.083Z,20.60
2017-08-05T19:45:33.405Z,20.60
2017-08-05T19:48:01.683Z,20.60
2017-08-05T19:50:29.971Z,20.60
2017-08-05T19:52:58.315Z,20.60
2017-08-05T19:55:26.600Z,20.60
2017-08-05T19:57:54.885Z,20.60
2017-08-05T20:00:23.223Z,20.60
2017-08-05T20:02:51.496Z,20.50
2017-08-05T20:05:19.783Z,20.60
2017-08-05T20:07:48.109Z,20.60
2017-08-05T20:10:16.423Z,20.60
2017-08-05T20:12:44.711Z,20.60
2017-08-05T20:15:13.043Z,20.70
2017-08-05T20:17:41.323Z,20.70
2017-08-05T20:20:09.615Z,20.70
2017-08-05T20:22:37.976Z,20.70
2017-08-05T20:25:06.263Z,20.80
2017-08-05T20:27:34.587Z,20.80
2017-08-05T20:30:02.897Z,20.80
2017-08-05T20:32:31.179Z,20.80
2017-08-05T20:34:59.467Z,20.80
2017-08-05T20:37:27.811Z,20.80
2017-08-05T20:39:56.895Z,20.80
2017-08-05T20:42:25.333Z,20.70
2017-08-05T20:44:54.419Z,20.70
2017-08-05T20:47:22.694Z,20.70
2017-08-05T20:49:50.971Z,20.70
2017-08-05T20:52:19.363Z,20.70
2017-08-05T20:54:48.425Z,20.60
2017-08-05T20:57:16.721Z,20.60
2017-08-05T20:59:45.092Z,20.60
2017-08-05T21:02:14.142Z,20.40
2017-08-05T21:04:42.483Z,20.40
2017-08-05T21:07:10.811Z,20.30
2017-08-05T21:09:39.882Z,20.30
2017-08-05T21:12:08.179Z,20.20
2017-08-05T21:14:36.515Z,20.20
2017-08-05T21:17:04.813Z,20.20
2017-08-05T21:19:33.100Z,20.10
2017-08-05T21:22:01.425Z,20.10
2017-08-05T21:24:29.722Z,20.10
2017-08-05T21:26:58.007Z,20.00
2017-08-05T21:29:26.315Z,20.00
2017-08-05T21:31:54.604Z,19.90
2017-08-05T21:34:22.908Z,19.90
2017-08-05T21:36:51.219Z,19.80
2017-08-05T21:39:19.520Z,19.70
2017-08-05T21:41:47.856Z,19.60
2017-08-05T21:44:16.921Z,19.50
2017-08-05T21:46:45.212Z,19.50
2017-08-05T21:49:13.531Z,19.50
2017-08-05T21:51:42.384Z,19.40
2017-08-05T21:54:10.681Z,19.30
2017-08-05T21:56:39.022Z,19.20
2017-08-05T21:59:08.067Z,19.10
2017-08-05T22:01:36.369Z,19.10
2017-08-05T22:04:04.679Z,19.20
2017-08-05T22:06:32.971Z,19.20
2017-08-05T22:09:01.254Z,19.30
2017-08-05T22:11:29.578Z,19.20
2017-08-05T22:13:57.862Z,19.10
2017-08-05T22:16:26.932Z,19.10
2017-08-05T22:18:55.251Z,19.10
2017-08-05T22:21:23.527Z,19.10
2017-08-05T22:23:51.823Z,19.10
2017-08-05T22:26:20.141Z,19.00
2017-08-05T22:28:48.443Z,19.10
2017-08-05T22:31:16.735Z,19.00
2017-08-05T22:33:45.071Z,19.00
2017-08-05T22:36:14.123Z,18.80
2017-08-05T22:38:42.405Z,18.80
2017-08-05T22:41:10.768Z,18.70
2017-08-05T22:43:39.051Z,18.60
2017-08-05T22:46:07.338Z,18.50
2017-08-05T22:48:35.674Z,18.40
2017-08-05T22:51:04.732Z,18.30
2017-08-05T22:53:33.021Z,18.30
2017-08-05T22:56:02.119Z,18.40
2017-08-05T22:58:30.404Z,18.30
2017-08-05T23:00:59.450Z,18.30
2017-08-05T23:03:27.780Z,18.30
2017-08-05T23:05:56.068Z,18.30
2017-08-05T23:08:25.119Z,18.30
2017-08-05T23:10:53.439Z,18.20
2017-08-05T23:13:21.725Z,18.20
2017-08-05T23:15:50.019Z,18.20
2017-08-05T23:18:18.339Z,18.20
2017-08-05T23:20:46.617Z,18.20
2017-08-05T23:23:14.915Z,18.20
2017-08-05T23:25:43.255Z,18.10
2017-08-05T23:28:11.543Z,18.10
2017-08-05T23:30:39.838Z,18.10
2017-08-05T23:33:08.166Z,18.00
2017-08-05T23:35:36.444Z,18.20
2017-08-05T23:38:04.727Z,18.20
2017-08-05T23:40:33.051Z,18.10
2017-08-05T23:43:01.340Z,18.10
2017-08-05T23:45:29.630Z,18.10
2017-08-05T23:47:57.947Z,18.00
2017-08-05T23:50:26.239Z,18.00
2017-08-05T23:52:54.535Z,18.10
2017-08-05T23:55:22.850Z,18.00
2017-08-05T23:57:51.144Z,18.00
